sensor_id;sensor_type;location;lat;lon;timestamp;P1;durP1;ratioP1;P2;durP2;ratioP2
85820;SDS011;76265;50.102;8.854;2024-03-22T00:02:15;12.93;;;6.50;;
85820;SDS011;76265;50.102;8.854;2024-03-22T00:04:42;11.93;;;6.15;;
85820;SDS011;76265;50.102;8.854;2024-03-22T00:07:09;11.77;;;5.85;;
85820;SDS011;76265;50.102;8.854;2024-03-22T00:09:35;9.68;;;5.63;;
85820;SDS011;76265;50.102;8.854;2024-03-22T00:12:02;10.18;;;6.20;;
85820;SDS011;76265;50.102;8.854;2024-03-22T00:14:29;11.57;;;5.45;;
85820;SDS011;76265;50.102;8.854;2024-03-22T00:16:56;12.23;;;6.28;;
85820;SDS011;76265;50.102;8.854;2024-03-22T00:19:22;11.00;;;6.45;;
85820;SDS011;76265;50.102;8.854;2024-03-22T00:21:49;9.90;;;5.95;;
85820;SDS011;76265;50.102;8.854;2024-03-22T00:24:15;11.52;;;5.60;;
85820;SDS011;76265;50.102;8.854;2024-03-22T00:26:42;10.30;;;6.20;;
85820;SDS011;76265;50.102;8.854;2024-03-22T00:29:14;11.57;;;6.00;;
85820;SDS011;76265;50.102;8.854;2024-03-22T00:31:43;9.43;;;5.72;;
85820;SDS011;76265;50.102;8.854;2024-03-22T00:34:09;9.45;;;5.35;;
85820;SDS011;76265;50.102;8.854;2024-03-22T00:36:36;13.50;;;6.95;;
85820;SDS011;76265;50.102;8.854;2024-03-22T00:39:02;12.02;;;6.40;;
85820;SDS011;76265;50.102;8.854;2024-03-22T00:41:29;11.68;;;6.80;;
85820;SDS011;76265;50.102;8.854;2024-03-22T00:43:55;9.75;;;5.93;;
85820;SDS011;76265;50.102;8.854;2024-03-22T00:46:22;16.33;;;6.45;;
85820;SDS011;76265;50.102;8.854;2024-03-22T00:48:49;13.30;;;6.80;;
85820;SDS011;76265;50.102;8.854;2024-03-22T00:51:16;13.52;;;6.70;;
85820;SDS011;76265;50.102;8.854;2024-03-22T00:53:42;9.90;;;6.22;;
85820;SDS011;76265;50.102;8.854;2024-03-22T00:56:10;13.45;;;6.63;;
85820;SDS011;76265;50.102;8.854;2024-03-22T00:58:36;12.00;;;6.78;;
85820;SDS011;76265;50.102;8.854;2024-03-22T01:01:03;11.90;;;6.18;;
85820;SDS011;76265;50.102;8.854;2024-03-22T01:03:29;14.52;;;7.32;;
85820;SDS011;76265;50.102;8.854;2024-03-22T01:05:57;15.35;;;6.93;;
85820;SDS011;76265;50.102;8.854;2024-03-22T01:08:23;21.45;;;7.45;;
85820;SDS011;76265;50.102;8.854;2024-03-22T01:10:50;13.63;;;6.43;;
85820;SDS011;76265;50.102;8.854;2024-03-22T01:13:17;11.15;;;6.65;;
85820;SDS011;76265;50.102;8.854;2024-03-22T01:15:44;15.40;;;7.05;;
85820;SDS011;76265;50.102;8.854;2024-03-22T01:18:11;12.55;;;6.53;;
85820;SDS011;76265;50.102;8.854;2024-03-22T01:20:38;12.48;;;6.78;;
85820;SDS011;76265;50.102;8.854;2024-03-22T01:23:06;18.08;;;8.25;;
85820;SDS011;76265;50.102;8.854;2024-03-22T01:25:32;15.88;;;7.47;;
85820;SDS011;76265;50.102;8.854;2024-03-22T01:27:59;9.90;;;6.32;;
85820;SDS011;76265;50.102;8.854;2024-03-22T01:30:26;9.48;;;5.40;;
85820;SDS011;76265;50.102;8.854;2024-03-22T01:32:54;13.35;;;6.43;;
85820;SDS011;76265;50.102;8.854;2024-03-22T01:35:21;10.02;;;5.82;;
85820;SDS011;76265;50.102;8.854;2024-03-22T01:37:47;11.32;;;6.47;;
85820;SDS011;76265;50.102;8.854;2024-03-22T01:40:15;16.30;;;6.90;;
85820;SDS011;76265;50.102;8.854;2024-03-22T01:42:41;9.82;;;5.90;;
85820;SDS011;76265;50.102;8.854;2024-03-22T01:45:08;14.50;;;6.97;;
85820;SDS011;76265;50.102;8.854;2024-03-22T01:47:34;12.25;;;6.80;;
85820;SDS011;76265;50.102;8.854;2024-03-22T01:50:02;16.25;;;7.78;;
85820;SDS011;76265;50.102;8.854;2024-03-22T01:52:28;17.98;;;8.60;;
85820;SDS011;76265;50.102;8.854;2024-03-22T01:54:55;12.73;;;6.90;;
85820;SDS011;76265;50.102;8.854;2024-03-22T01:57:23;19.48;;;7.90;;
85820;SDS011;76265;50.102;8.854;2024-03-22T01:59:50;16.73;;;7.68;;
85820;SDS011;76265;50.102;8.854;2024-03-22T02:02:19;15.57;;;7.65;;
85820;SDS011;76265;50.102;8.854;2024-03-22T02:04:49;14.55;;;8.05;;
85820;SDS011;76265;50.102;8.854;2024-03-22T02:07:16;13.05;;;6.60;;
85820;SDS011;76265;50.102;8.854;2024-03-22T02:09:43;13.32;;;6.25;;
85820;SDS011;76265;50.102;8.854;2024-03-22T02:12:09;13.75;;;7.30;;
85820;SDS011;76265;50.102;8.854;2024-03-22T02:14:37;14.80;;;7.05;;
85820;SDS011;76265;50.102;8.854;2024-03-22T02:17:03;10.43;;;5.90;;
85820;SDS011;76265;50.102;8.854;2024-03-22T02:19:30;13.50;;;7.25;;
85820;SDS011;76265;50.102;8.854;2024-03-22T02:21:57;14.90;;;6.97;;
85820;SDS011;76265;50.102;8.854;2024-03-22T02:24:25;12.77;;;6.72;;
85820;SDS011;76265;50.102;8.854;2024-03-22T02:26:51;13.13;;;6.68;;
85820;SDS011;76265;50.102;8.854;2024-03-22T02:29:18;12.75;;;7.00;;
85820;SDS011;76265;50.102;8.854;2024-03-22T02:31:44;13.70;;;7.63;;
85820;SDS011;76265;50.102;8.854;2024-03-22T02:34:11;15.23;;;7.00;;
85820;SDS011;76265;50.102;8.854;2024-03-22T02:36:37;15.98;;;7.72;;
85820;SDS011;76265;50.102;8.854;2024-03-22T02:39:04;14.57;;;6.82;;
85820;SDS011;76265;50.102;8.854;2024-03-22T02:41:31;11.75;;;7.45;;
85820;SDS011;76265;50.102;8.854;2024-03-22T02:43:58;17.83;;;7.38;;
85820;SDS011;76265;50.102;8.854;2024-03-22T02:46:24;16.65;;;7.75;;
85820;SDS011;76265;50.102;8.854;2024-03-22T02:48:51;13.80;;;7.55;;
85820;SDS011;76265;50.102;8.854;2024-03-22T02:51:17;22.13;;;8.07;;
85820;SDS011;76265;50.102;8.854;2024-03-22T02:53:44;12.70;;;7.03;;
85820;SDS011;76265;50.102;8.854;2024-03-22T02:56:10;15.48;;;7.63;;
85820;SDS011;76265;50.102;8.854;2024-03-22T02:58:39;15.75;;;7.28;;
85820;SDS011;76265;50.102;8.854;2024-03-22T03:01:05;20.20;;;8.13;;
85820;SDS011;76265;50.102;8.854;2024-03-22T03:03:32;12.82;;;6.55;;
85820;SDS011;76265;50.102;8.854;2024-03-22T03:05:58;15.75;;;7.68;;
85820;SDS011;76265;50.102;8.854;2024-03-22T03:08:25;12.50;;;6.85;;
85820;SDS011;76265;50.102;8.854;2024-03-22T03:10:51;14.02;;;8.05;;
85820;SDS011;76265;50.102;8.854;2024-03-22T03:13:18;15.18;;;7.57;;
85820;SDS011;76265;50.102;8.854;2024-03-22T03:15:45;13.65;;;8.05;;
85820;SDS011;76265;50.102;8.854;2024-03-22T03:18:12;19.77;;;7.25;;
85820;SDS011;76265;50.102;8.854;2024-03-22T03:20:38;15.02;;;7.63;;
85820;SDS011;76265;50.102;8.854;2024-03-22T03:23:05;16.98;;;9.10;;
85820;SDS011;76265;50.102;8.854;2024-03-22T03:25:31;18.40;;;8.38;;
85820;SDS011;76265;50.102;8.854;2024-03-22T03:27:58;15.75;;;7.40;;
85820;SDS011;76265;50.102;8.854;2024-03-22T03:30:24;22.50;;;8.32;;
85820;SDS011;76265;50.102;8.854;2024-03-22T03:32:53;19.33;;;9.90;;
85820;SDS011;76265;50.102;8.854;2024-03-22T03:35:19;22.38;;;8.55;;
85820;SDS011;76265;50.102;8.854;2024-03-22T03:37:46;16.52;;;8.45;;
85820;SDS011;76265;50.102;8.854;2024-03-22T03:40:12;18.05;;;8.30;;
85820;SDS011;76265;50.102;8.854;2024-03-22T03:42:39;18.25;;;8.30;;
85820;SDS011;76265;50.102;8.854;2024-03-22T03:45:05;17.70;;;8.05;;
85820;SDS011;76265;50.102;8.854;2024-03-22T03:47:32;21.67;;;9.30;;
85820;SDS011;76265;50.102;8.854;2024-03-22T03:50:00;18.60;;;9.02;;
85820;SDS011;76265;50.102;8.854;2024-03-22T03:52:27;17.38;;;9.13;;
85820;SDS011;76265;50.102;8.854;2024-03-22T03:54:53;22.60;;;8.90;;
85820;SDS011;76265;50.102;8.854;2024-03-22T03:57:20;17.13;;;8.23;;
85820;SDS011;76265;50.102;8.854;2024-03-22T03:59:46;12.65;;;6.75;;
85820;SDS011;76265;50.102;8.854;2024-03-22T04:02:13;19.30;;;7.85;;
85820;SDS011;76265;50.102;8.854;2024-03-22T04:04:39;17.70;;;8.02;;
85820;SDS011;76265;50.102;8.854;2024-03-22T04:07:08;17.00;;;8.77;;
85820;SDS011;76265;50.102;8.854;2024-03-22T04:09:34;17.15;;;8.50;;
85820;SDS011;76265;50.102;8.854;2024-03-22T04:12:01;24.05;;;10.75;;
85820;SDS011;76265;50.102;8.854;2024-03-22T04:14:27;15.98;;;9.02;;
85820;SDS011;76265;50.102;8.854;2024-03-22T04:16:54;18.85;;;9.30;;
85820;SDS011;76265;50.102;8.854;2024-03-22T04:19:20;20.00;;;8.88;;
85820;SDS011;76265;50.102;8.854;2024-03-22T04:21:47;15.45;;;8.88;;
85820;SDS011;76265;50.102;8.854;2024-03-22T04:24:16;17.42;;;9.00;;
85820;SDS011;76265;50.102;8.854;2024-03-22T04:26:43;20.20;;;8.95;;
85820;SDS011;76265;50.102;8.854;2024-03-22T04:29:09;21.05;;;8.55;;
85820;SDS011;76265;50.102;8.854;2024-03-22T04:31:36;12.38;;;7.30;;
85820;SDS011;76265;50.102;8.854;2024-03-22T04:34:01;17.05;;;8.88;;
85820;SDS011;76265;50.102;8.854;2024-03-22T04:36:31;19.10;;;8.40;;
85820;SDS011;76265;50.102;8.854;2024-03-22T04:38:57;21.73;;;8.32;;
85820;SDS011;76265;50.102;8.854;2024-03-22T04:41:25;15.77;;;8.40;;
85820;SDS011;76265;50.102;8.854;2024-03-22T04:43:52;19.25;;;9.18;;
85820;SDS011;76265;50.102;8.854;2024-03-22T04:46:19;21.88;;;9.35;;
85820;SDS011;76265;50.102;8.854;2024-03-22T04:48:45;18.60;;;9.50;;
85820;SDS011;76265;50.102;8.854;2024-03-22T04:51:12;19.30;;;8.93;;
85820;SDS011;76265;50.102;8.854;2024-03-22T04:53:39;16.40;;;9.00;;
85820;SDS011;76265;50.102;8.854;2024-03-22T04:56:05;22.42;;;8.80;;
85820;SDS011;76265;50.102;8.854;2024-03-22T04:58:35;24.35;;;10.07;;
85820;SDS011;76265;50.102;8.854;2024-03-22T05:01:01;18.10;;;8.98;;
85820;SDS011;76265;50.102;8.854;2024-03-22T05:03:28;20.52;;;9.13;;
85820;SDS011;76265;50.102;8.854;2024-03-22T05:05:54;16.63;;;8.80;;
85820;SDS011;76265;50.102;8.854;2024-03-22T05:08:22;16.20;;;8.38;;
85820;SDS011;76265;50.102;8.854;2024-03-22T05:10:49;25.35;;;10.30;;
85820;SDS011;76265;50.102;8.854;2024-03-22T05:13:16;20.67;;;9.77;;
85820;SDS011;76265;50.102;8.854;2024-03-22T05:15:44;19.25;;;9.70;;
85820;SDS011;76265;50.102;8.854;2024-03-22T05:18:11;24.33;;;9.20;;
85820;SDS011;76265;50.102;8.854;2024-03-22T05:20:37;20.83;;;9.23;;
85820;SDS011;76265;50.102;8.854;2024-03-22T05:23:04;22.75;;;9.43;;
85820;SDS011;76265;50.102;8.854;2024-03-22T05:25:30;26.00;;;10.18;;
85820;SDS011;76265;50.102;8.854;2024-03-22T05:27:57;21.00;;;9.82;;
85820;SDS011;76265;50.102;8.854;2024-03-22T05:30:24;25.83;;;10.63;;
85820;SDS011;76265;50.102;8.854;2024-03-22T05:32:51;20.48;;;10.00;;
85820;SDS011;76265;50.102;8.854;2024-03-22T05:35:18;30.85;;;10.85;;
85820;SDS011;76265;50.102;8.854;2024-03-22T05:37:44;30.52;;;9.88;;
85820;SDS011;76265;50.102;8.854;2024-03-22T05:40:11;19.38;;;9.60;;
85820;SDS011;76265;50.102;8.854;2024-03-22T05:42:38;20.20;;;8.63;;
85820;SDS011;76265;50.102;8.854;2024-03-22T05:45:05;25.33;;;11.05;;
85820;SDS011;76265;50.102;8.854;2024-03-22T05:47:31;23.90;;;10.90;;
85820;SDS011;76265;50.102;8.854;2024-03-22T05:50:00;26.95;;;12.25;;
85820;SDS011;76265;50.102;8.854;2024-03-22T05:52:27;27.33;;;12.43;;
85820;SDS011;76265;50.102;8.854;2024-03-22T05:54:54;28.90;;;12.40;;
85820;SDS011;76265;50.102;8.854;2024-03-22T05:57:21;23.60;;;9.93;;
85820;SDS011;76265;50.102;8.854;2024-03-22T05:59:48;20.13;;;9.35;;
85820;SDS011;76265;50.102;8.854;2024-03-22T06:02:14;26.13;;;9.77;;
85820;SDS011;76265;50.102;8.854;2024-03-22T06:04:42;22.63;;;9.32;;
85820;SDS011;76265;50.102;8.854;2024-03-22T06:07:09;21.80;;;10.20;;
85820;SDS011;76265;50.102;8.854;2024-03-22T06:09:37;19.73;;;8.90;;
85820;SDS011;76265;50.102;8.854;2024-03-22T06:12:03;21.98;;;8.85;;
85820;SDS011;76265;50.102;8.854;2024-03-22T06:14:31;19.90;;;8.70;;
85820;SDS011;76265;50.102;8.854;2024-03-22T06:16:57;17.48;;;7.78;;
85820;SDS011;76265;50.102;8.854;2024-03-22T06:19:24;20.15;;;8.82;;
85820;SDS011;76265;50.102;8.854;2024-03-22T06:21:50;17.10;;;8.60;;
85820;SDS011;76265;50.102;8.854;2024-03-22T06:24:18;14.05;;;7.47;;
85820;SDS011;76265;50.102;8.854;2024-03-22T06:26:44;15.30;;;8.30;;
85820;SDS011;76265;50.102;8.854;2024-03-22T06:29:11;14.85;;;8.50;;
85820;SDS011;76265;50.102;8.854;2024-03-22T06:31:38;15.15;;;6.95;;
85820;SDS011;76265;50.102;8.854;2024-03-22T06:34:05;15.57;;;8.07;;
85820;SDS011;76265;50.102;8.854;2024-03-22T06:36:31;14.93;;;8.38;;
85820;SDS011;76265;50.102;8.854;2024-03-22T06:38:58;14.25;;;7.25;;
85820;SDS011;76265;50.102;8.854;2024-03-22T06:41:27;14.50;;;7.60;;
85820;SDS011;76265;50.102;8.854;2024-03-22T06:43:54;16.80;;;7.80;;
85820;SDS011;76265;50.102;8.854;2024-03-22T06:46:20;15.65;;;7.60;;
85820;SDS011;76265;50.102;8.854;2024-03-22T06:48:48;13.95;;;8.20;;
85820;SDS011;76265;50.102;8.854;2024-03-22T06:51:14;19.00;;;8.52;;
85820;SDS011;76265;50.102;8.854;2024-03-22T06:53:41;14.23;;;6.90;;
85820;SDS011;76265;50.102;8.854;2024-03-22T06:56:07;16.08;;;7.63;;
85820;SDS011;76265;50.102;8.854;2024-03-22T06:58:38;12.55;;;7.57;;
85820;SDS011;76265;50.102;8.854;2024-03-22T07:01:04;12.02;;;6.38;;
85820;SDS011;76265;50.102;8.854;2024-03-22T07:03:31;13.10;;;6.97;;
85820;SDS011;76265;50.102;8.854;2024-03-22T07:05:58;11.95;;;6.93;;
85820;SDS011;76265;50.102;8.854;2024-03-22T07:08:26;10.88;;;6.57;;
85820;SDS011;76265;50.102;8.854;2024-03-22T07:10:53;12.90;;;6.07;;
85820;SDS011;76265;50.102;8.854;2024-03-22T07:13:20;12.82;;;7.28;;
85820;SDS011;76265;50.102;8.854;2024-03-22T07:15:48;17.55;;;8.07;;
85820;SDS011;76265;50.102;8.854;2024-03-22T07:18:15;19.80;;;9.02;;
85820;SDS011;76265;50.102;8.854;2024-03-22T07:20:41;17.92;;;8.40;;
85820;SDS011;76265;50.102;8.854;2024-03-22T07:23:08;15.88;;;7.85;;
85820;SDS011;76265;50.102;8.854;2024-03-22T07:25:34;14.45;;;7.10;;
85820;SDS011;76265;50.102;8.854;2024-03-22T07:28:01;18.52;;;8.98;;
85820;SDS011;76265;50.102;8.854;2024-03-22T07:30:27;18.98;;;8.15;;
85820;SDS011;76265;50.102;8.854;2024-03-22T07:32:55;13.90;;;7.90;;
85820;SDS011;76265;50.102;8.854;2024-03-22T07:35:22;17.30;;;8.43;;
85820;SDS011;76265;50.102;8.854;2024-03-22T07:37:50;10.77;;;6.10;;
85820;SDS011;76265;50.102;8.854;2024-03-22T07:40:16;13.48;;;7.20;;
85820;SDS011;76265;50.102;8.854;2024-03-22T07:42:43;13.32;;;6.90;;
85820;SDS011;76265;50.102;8.854;2024-03-22T07:45:09;14.05;;;8.55;;
85820;SDS011;76265;50.102;8.854;2024-03-22T07:47:36;13.93;;;7.40;;
85820;SDS011;76265;50.102;8.854;2024-03-22T07:50:05;14.05;;;6.63;;
85820;SDS011;76265;50.102;8.854;2024-03-22T07:52:33;15.95;;;6.93;;
85820;SDS011;76265;50.102;8.854;2024-03-22T07:54:59;16.85;;;7.20;;
85820;SDS011;76265;50.102;8.854;2024-03-22T07:57:27;17.33;;;7.35;;
85820;SDS011;76265;50.102;8.854;2024-03-22T07:59:53;11.38;;;6.70;;
85820;SDS011;76265;50.102;8.854;2024-03-22T08:02:20;14.90;;;7.53;;
85820;SDS011;76265;50.102;8.854;2024-03-22T08:04:46;14.52;;;7.35;;
85820;SDS011;76265;50.102;8.854;2024-03-22T08:07:15;18.05;;;7.72;;
85820;SDS011;76265;50.102;8.854;2024-03-22T08:09:42;15.32;;;8.25;;
85820;SDS011;76265;50.102;8.854;2024-03-22T08:12:08;11.88;;;6.80;;
85820;SDS011;76265;50.102;8.854;2024-03-22T08:14:34;13.70;;;7.03;;
85820;SDS011;76265;50.102;8.854;2024-03-22T08:17:02;14.45;;;7.35;;
85820;SDS011;76265;50.102;8.854;2024-03-22T08:19:29;14.00;;;6.78;;
85820;SDS011;76265;50.102;8.854;2024-03-22T08:21:56;12.52;;;6.95;;
85820;SDS011;76265;50.102;8.854;2024-03-22T08:24:24;15.90;;;7.25;;
85820;SDS011;76265;50.102;8.854;2024-03-22T08:26:51;12.77;;;7.40;;
85820;SDS011;76265;50.102;8.854;2024-03-22T08:29:17;15.55;;;7.38;;
85820;SDS011;76265;50.102;8.854;2024-03-22T08:31:44;15.48;;;6.85;;
85820;SDS011;76265;50.102;8.854;2024-03-22T08:34:10;14.35;;;6.43;;
85820;SDS011;76265;50.102;8.854;2024-03-22T08:36:37;14.88;;;7.47;;
85820;SDS011;76265;50.102;8.854;2024-03-22T08:39:03;12.85;;;6.57;;
85820;SDS011;76265;50.102;8.854;2024-03-22T08:41:34;15.00;;;7.32;;
85820;SDS011;76265;50.102;8.854;2024-03-22T08:44:00;15.90;;;7.15;;
85820;SDS011;76265;50.102;8.854;2024-03-22T08:46:27;15.05;;;7.07;;
85820;SDS011;76265;50.102;8.854;2024-03-22T08:48:53;15.32;;;7.97;;
85820;SDS011;76265;50.102;8.854;2024-03-22T08:51:21;13.80;;;7.57;;
85820;SDS011;76265;50.102;8.854;2024-03-22T08:53:47;15.60;;;8.15;;
85820;SDS011;76265;50.102;8.854;2024-03-22T08:56:14;14.88;;;7.35;;
85820;SDS011;76265;50.102;8.854;2024-03-22T08:58:41;12.68;;;7.60;;
85820;SDS011;76265;50.102;8.854;2024-03-22T09:01:08;10.95;;;6.47;;
85820;SDS011;76265;50.102;8.854;2024-03-22T09:03:36;13.85;;;6.63;;
85820;SDS011;76265;50.102;8.854;2024-03-22T09:06:03;10.60;;;6.00;;
85820;SDS011;76265;50.102;8.854;2024-03-22T09:08:30;9.88;;;6.75;;
85820;SDS011;76265;50.102;8.854;2024-03-22T09:10:56;13.30;;;6.07;;
85820;SDS011;76265;50.102;8.854;2024-03-22T09:13:22;14.02;;;6.47;;
85820;SDS011;76265;50.102;8.854;2024-03-22T09:15:57;11.07;;;6.40;;
85820;SDS011;76265;50.102;8.854;2024-03-22T09:18:23;9.38;;;5.32;;
85820;SDS011;76265;50.102;8.854;2024-03-22T09:20:50;11.65;;;6.28;;
85820;SDS011;76265;50.102;8.854;2024-03-22T09:23:16;13.07;;;6.22;;
85820;SDS011;76265;50.102;8.854;2024-03-22T09:25:43;9.32;;;5.68;;
85820;SDS011;76265;50.102;8.854;2024-03-22T09:28:09;9.50;;;5.40;;
85820;SDS011;76265;50.102;8.854;2024-03-22T09:30:37;11.52;;;5.45;;
85820;SDS011;76265;50.102;8.854;2024-03-22T09:33:05;10.55;;;4.93;;
85820;SDS011;76265;50.102;8.854;2024-03-22T09:35:33;8.68;;;4.93;;
85820;SDS011;76265;50.102;8.854;2024-03-22T09:37:59;9.77;;;4.93;;
85820;SDS011;76265;50.102;8.854;2024-03-22T09:40:26;5.97;;;4.15;;
85820;SDS011;76265;50.102;8.854;2024-03-22T09:42:53;7.75;;;4.43;;
85820;SDS011;76265;50.102;8.854;2024-03-22T09:45:20;8.90;;;4.38;;
85820;SDS011;76265;50.102;8.854;2024-03-22T09:47:46;6.07;;;3.97;;
85820;SDS011;76265;50.102;8.854;2024-03-22T09:50:16;7.72;;;4.30;;
85820;SDS011;76265;50.102;8.854;2024-03-22T09:52:42;6.35;;;4.07;;
85820;SDS011;76265;50.102;8.854;2024-03-22T09:55:11;5.90;;;3.80;;
85820;SDS011;76265;50.102;8.854;2024-03-22T09:57:39;7.65;;;4.30;;
85820;SDS011;76265;50.102;8.854;2024-03-22T10:00:08;6.63;;;3.95;;
85820;SDS011;76265;50.102;8.854;2024-03-22T10:02:39;5.30;;;3.05;;
85820;SDS011;76265;50.102;8.854;2024-03-22T10:05:10;6.18;;;3.20;;
85820;SDS011;76265;50.102;8.854;2024-03-22T10:07:37;3.67;;;2.42;;
85820;SDS011;76265;50.102;8.854;2024-03-22T10:10:05;6.45;;;2.60;;
85820;SDS011;76265;50.102;8.854;2024-03-22T10:12:33;4.55;;;2.10;;
85820;SDS011;76265;50.102;8.854;2024-03-22T10:15:00;5.13;;;2.20;;
85820;SDS011;76265;50.102;8.854;2024-03-22T10:17:26;5.55;;;2.00;;
85820;SDS011;76265;50.102;8.854;2024-03-22T10:19:53;3.58;;;2.38;;
85820;SDS011;76265;50.102;8.854;2024-03-22T10:22:19;3.00;;;2.15;;
85820;SDS011;76265;50.102;8.854;2024-03-22T10:24:48;3.88;;;1.92;;
85820;SDS011;76265;50.102;8.854;2024-03-22T10:27:14;5.15;;;1.90;;
85820;SDS011;76265;50.102;8.854;2024-03-22T10:29:41;3.60;;;2.33;;
85820;SDS011;76265;50.102;8.854;2024-03-22T10:32:07;5.13;;;2.40;;
85820;SDS011;76265;50.102;8.854;2024-03-22T10:34:35;4.93;;;2.20;;
85820;SDS011;76265;50.102;8.854;2024-03-22T10:37:01;4.95;;;2.78;;
85820;SDS011;76265;50.102;8.854;2024-03-22T10:39:30;4.60;;;2.80;;
85820;SDS011;76265;50.102;8.854;2024-03-22T10:41:57;8.88;;;2.60;;
85820;SDS011;76265;50.102;8.854;2024-03-22T10:44:25;3.50;;;2.05;;
85820;SDS011;76265;50.102;8.854;2024-03-22T10:46:51;5.20;;;2.20;;
85820;SDS011;76265;50.102;8.854;2024-03-22T10:49:22;6.60;;;2.35;;
85820;SDS011;76265;50.102;8.854;2024-03-22T10:51:50;5.25;;;2.47;;
85820;SDS011;76265;50.102;8.854;2024-03-22T10:54:20;3.05;;;1.75;;
85820;SDS011;76265;50.102;8.854;2024-03-22T10:56:52;6.07;;;3.88;;
85820;SDS011;76265;50.102;8.854;2024-03-22T10:59:22;4.47;;;2.50;;
85820;SDS011;76265;50.102;8.854;2024-03-22T11:01:49;45.72;;;12.20;;
85820;SDS011;76265;50.102;8.854;2024-03-22T11:04:16;83.70;;;19.67;;
85820;SDS011;76265;50.102;8.854;2024-03-22T11:06:46;163.88;;;37.08;;
85820;SDS011;76265;50.102;8.854;2024-03-22T11:09:18;6.53;;;4.07;;
85820;SDS011;76265;50.102;8.854;2024-03-22T11:11:44;35.80;;;8.30;;
85820;SDS011;76265;50.102;8.854;2024-03-22T11:14:11;33.40;;;7.72;;
85820;SDS011;76265;50.102;8.854;2024-03-22T11:16:38;4.40;;;2.90;;
85820;SDS011;76265;50.102;8.854;2024-03-22T11:19:09;7.55;;;3.50;;
85820;SDS011;76265;50.102;8.854;2024-03-22T11:21:36;8.75;;;4.45;;
85820;SDS011;76265;50.102;8.854;2024-03-22T11:24:03;6.88;;;3.35;;
85820;SDS011;76265;50.102;8.854;2024-03-22T11:26:29;14.75;;;4.90;;
85820;SDS011;76265;50.102;8.854;2024-03-22T11:28:56;9.18;;;3.70;;
85820;SDS011;76265;50.102;8.854;2024-03-22T11:31:22;18.65;;;5.72;;
85820;SDS011;76265;50.102;8.854;2024-03-22T11:33:54;12.82;;;4.25;;
85820;SDS011;76265;50.102;8.854;2024-03-22T11:36:20;6.85;;;4.32;;
85820;SDS011;76265;50.102;8.854;2024-03-22T11:38:48;8.55;;;4.38;;
85820;SDS011;76265;50.102;8.854;2024-03-22T11:41:16;6.50;;;4.90;;
85820;SDS011;76265;50.102;8.854;2024-03-22T11:43:44;10.07;;;5.32;;
85820;SDS011;76265;50.102;8.854;2024-03-22T11:46:11;6.90;;;4.13;;
85820;SDS011;76265;50.102;8.854;2024-03-22T11:48:39;6.78;;;3.80;;
85820;SDS011;76265;50.102;8.854;2024-03-22T11:51:08;9.05;;;5.07;;
85820;SDS011;76265;50.102;8.854;2024-03-22T11:53:34;6.55;;;4.65;;
85820;SDS011;76265;50.102;8.854;2024-03-22T11:56:02;8.73;;;4.03;;
85820;SDS011;76265;50.102;8.854;2024-03-22T11:58:29;8.90;;;4.93;;
85820;SDS011;76265;50.102;8.854;2024-03-22T12:00:56;6.80;;;4.40;;
85820;SDS011;76265;50.102;8.854;2024-03-22T12:03:23;9.25;;;4.45;;
85820;SDS011;76265;50.102;8.854;2024-03-22T12:05:50;6.95;;;4.25;;
85820;SDS011;76265;50.102;8.854;2024-03-22T12:08:21;10.00;;;4.80;;
85820;SDS011;76265;50.102;8.854;2024-03-22T12:10:48;7.53;;;4.85;;
85820;SDS011;76265;50.102;8.854;2024-03-22T12:13:14;7.60;;;4.70;;
85820;SDS011;76265;50.102;8.854;2024-03-22T12:15:41;10.43;;;5.15;;
85820;SDS011;76265;50.102;8.854;2024-03-22T12:18:07;8.32;;;5.15;;
85820;SDS011;76265;50.102;8.854;2024-03-22T12:20:34;7.25;;;4.28;;
85820;SDS011;76265;50.102;8.854;2024-03-22T12:23:00;8.48;;;4.65;;
85820;SDS011;76265;50.102;8.854;2024-03-22T12:25:29;8.05;;;4.43;;
85820;SDS011;76265;50.102;8.854;2024-03-22T12:27:55;7.05;;;4.80;;
85820;SDS011;76265;50.102;8.854;2024-03-22T12:30:21;10.73;;;4.53;;
85820;SDS011;76265;50.102;8.854;2024-03-22T12:32:47;8.35;;;4.88;;
85820;SDS011;76265;50.102;8.854;2024-03-22T12:35:16;7.05;;;4.57;;
85820;SDS011;76265;50.102;8.854;2024-03-22T12:37:43;8.13;;;5.32;;
85820;SDS011;76265;50.102;8.854;2024-03-22T12:40:10;9.10;;;4.53;;
85820;SDS011;76265;50.102;8.854;2024-03-22T12:42:38;8.95;;;5.55;;
85820;SDS011;76265;50.102;8.854;2024-03-22T12:45:06;8.70;;;4.65;;
85820;SDS011;76265;50.102;8.854;2024-03-22T12:47:32;9.18;;;4.45;;
85820;SDS011;76265;50.102;8.854;2024-03-22T12:49:59;10.13;;;4.80;;
85820;SDS011;76265;50.102;8.854;2024-03-22T12:52:25;7.13;;;4.18;;
85820;SDS011;76265;50.102;8.854;2024-03-22T12:54:52;9.63;;;4.30;;
85820;SDS011;76265;50.102;8.854;2024-03-22T12:57:18;10.45;;;3.90;;
85820;SDS011;76265;50.102;8.854;2024-03-22T12:59:47;9.68;;;4.22;;
85820;SDS011;76265;50.102;8.854;2024-03-22T13:02:13;7.72;;;3.88;;
85820;SDS011;76265;50.102;8.854;2024-03-22T13:04:40;8.82;;;4.70;;
85820;SDS011;76265;50.102;8.854;2024-03-22T13:07:06;7.90;;;4.18;;
85820;SDS011;76265;50.102;8.854;2024-03-22T13:09:33;7.78;;;4.72;;
85820;SDS011;76265;50.102;8.854;2024-03-22T13:11:59;6.93;;;4.32;;
85820;SDS011;76265;50.102;8.854;2024-03-22T13:14:26;9.07;;;4.85;;
85820;SDS011;76265;50.102;8.854;2024-03-22T13:16:54;8.32;;;4.47;;
85820;SDS011;76265;50.102;8.854;2024-03-22T13:19:21;9.75;;;4.72;;
85820;SDS011;76265;50.102;8.854;2024-03-22T13:21:47;5.88;;;4.18;;
85820;SDS011;76265;50.102;8.854;2024-03-22T13:24:14;14.10;;;4.35;;
85820;SDS011;76265;50.102;8.854;2024-03-22T13:26:40;7.35;;;4.45;;
85820;SDS011;76265;50.102;8.854;2024-03-22T13:29:07;8.80;;;4.38;;
85820;SDS011;76265;50.102;8.854;2024-03-22T13:31:33;6.88;;;4.28;;
85820;SDS011;76265;50.102;8.854;2024-03-22T13:34:02;8.32;;;4.63;;
85820;SDS011;76265;50.102;8.854;2024-03-22T13:36:29;8.27;;;4.53;;
85820;SDS011;76265;50.102;8.854;2024-03-22T13:38:58;6.30;;;4.07;;
85820;SDS011;76265;50.102;8.854;2024-03-22T13:41:24;8.25;;;5.50;;
85820;SDS011;76265;50.102;8.854;2024-03-22T13:43:51;6.43;;;4.70;;
85820;SDS011;76265;50.102;8.854;2024-03-22T13:46:17;8.93;;;4.35;;
85820;SDS011;76265;50.102;8.854;2024-03-22T13:48:44;5.88;;;4.45;;
85820;SDS011;76265;50.102;8.854;2024-03-22T13:51:11;7.03;;;4.57;;
85820;SDS011;76265;50.102;8.854;2024-03-22T13:53:38;11.98;;;5.53;;
85820;SDS011;76265;50.102;8.854;2024-03-22T13:56:04;9.30;;;4.55;;
85820;SDS011;76265;50.102;8.854;2024-03-22T13:58:32;7.85;;;4.22;;
85820;SDS011;76265;50.102;8.854;2024-03-22T14:00:59;7.82;;;4.38;;
85820;SDS011;76265;50.102;8.854;2024-03-22T14:03:27;8.68;;;4.55;;
85820;SDS011;76265;50.102;8.854;2024-03-22T14:05:53;10.82;;;4.22;;
85820;SDS011;76265;50.102;8.854;2024-03-22T14:08:21;7.63;;;4.28;;
85820;SDS011;76265;50.102;8.854;2024-03-22T14:10:47;10.02;;;4.70;;
85820;SDS011;76265;50.102;8.854;2024-03-22T14:13:14;9.70;;;4.68;;
85820;SDS011;76265;50.102;8.854;2024-03-22T14:15:41;7.15;;;4.18;;
85820;SDS011;76265;50.102;8.854;2024-03-22T14:18:08;6.03;;;4.00;;
85820;SDS011;76265;50.102;8.854;2024-03-22T14:20:35;8.18;;;4.10;;
85820;SDS011;76265;50.102;8.854;2024-03-22T14:23:02;7.88;;;3.90;;
85820;SDS011;76265;50.102;8.854;2024-03-22T14:25:31;8.95;;;3.85;;
85820;SDS011;76265;50.102;8.854;2024-03-22T14:27:58;6.30;;;3.42;;
85820;SDS011;76265;50.102;8.854;2024-03-22T14:30:24;8.43;;;4.47;;
85820;SDS011;76265;50.102;8.854;2024-03-22T14:32:51;5.40;;;3.90;;
85820;SDS011;76265;50.102;8.854;2024-03-22T14:35:18;5.38;;;4.00;;
85820;SDS011;76265;50.102;8.854;2024-03-22T14:37:46;7.78;;;4.10;;